TimePST,TemperatureF,Dew PointF,Humidity,Sea Level PressureIn,VisibilityMPH,Wind Direction,Wind SpeedMPH,Gust SpeedMPH,PrecipitationIn,Events,Conditions,WindDirDegrees,DateUTC
12:56 AM,48.0,37.9,68,29.99,10.0,West,10.4,-,N/A,,Overcast,270,2013-02-19 08:56:00
1:56 AM,46.9,39.9,77,29.98,10.0,West,11.5,-,0.00,Rain,Light Rain,270,2013-02-19 09:56:00
2:56 AM,46.9,39.0,74,29.96,10.0,WSW,4.6,-,N/A,,Overcast,250,2013-02-19 10:56:00
3:56 AM,46.9,39.9,77,29.94,10.0,SSE,6.9,-,N/A,,Overcast,150,2013-02-19 11:56:00
4:56 AM,46.4,39.2,76,29.93,10.0,SSW,6.9,-,N/A,,Mostly Cloudy,210,2013-02-19 12:56:00
5:56 AM,48.0,39.9,74,29.92,9.0,SW,9.2,-,0.00,Rain,Light Rain,230,2013-02-19 13:56:00
6:56 AM,46.9,39.9,77,29.90,10.0,SW,10.4,-,0.02,,Mostly Cloudy,220,2013-02-19 14:56:00
7:56 AM,48.0,39.9,74,29.88,10.0,South,9.2,-,0.00,,Mostly Cloudy,190,2013-02-19 15:56:00
8:56 AM,48.0,42.1,80,29.86,4.0,South,9.2,-,0.01,Rain,Light Rain,190,2013-02-19 16:56:00
9:34 AM,46.4,39.2,76,29.86,4.0,WSW,12.7,21.9,0.10,Rain,Rain,250,2013-02-19 17:34:00
9:56 AM,46.0,41.0,83,29.85,4.0,SW,10.4,-,0.15,Rain,Light Rain,230,2013-02-19 17:56:00
10:33 AM,44.6,39.2,81,29.86,3.0,WNW,13.8,-,0.13,Rain,Heavy Rain,290,2013-02-19 18:33:00
10:56 AM,45.0,39.9,82,29.85,5.0,WNW,5.8,-,0.20,Rain,Light Rain,290,2013-02-19 18:56:00
11:56 AM,46.9,39.0,74,29.83,10.0,West,9.2,-,0.00,Rain,Light Rain,280,2013-02-19 19:56:00
12:16 PM,44.6,39.2,81,29.84,8.0,WNW,19.6,27.6,0.01,Rain,Light Rain,290,2013-02-19 20:16:00
12:56 PM,44.1,37.0,76,29.83,8.0,WNW,13.8,-,0.02,Rain,Light Rain,290,2013-02-19 20:56:00
1:56 PM,46.0,37.9,73,29.82,10.0,NW,17.3,-,0.01,Rain,Light Rain,310,2013-02-19 21:56:00
2:54 PM,48.2,35.6,62,29.80,10.0,WNW,21.9,29.9,0.01,,Mostly Cloudy,290,2013-02-19 22:54:00
2:56 PM,48.0,36.0,63,29.80,10.0,WNW,23.0,29.9,0.01,,Mostly Cloudy,290,2013-02-19 22:56:00
4:56 PM,46.0,34.0,63,29.78,10.0,West,15.0,26.5,N/A,,Scattered Clouds,280,2013-02-20 00:56:00
5:56 PM,45.0,34.0,65,29.78,10.0,WNW,12.7,25.3,N/A,,Scattered Clouds,300,2013-02-20 01:56:00
6:56 PM,44.1,33.1,65,29.79,10.0,WNW,23.0,29.9,N/A,,Partly Cloudy,290,2013-02-20 02:56:00
7:56 PM,44.1,33.1,65,29.80,10.0,WNW,13.8,24.2,N/A,,Partly Cloudy,290,2013-02-20 03:56:00
8:56 PM,43.0,33.1,68,29.81,10.0,West,10.4,-,N/A,,Scattered Clouds,280,2013-02-20 04:56:00
9:56 PM,43.0,33.1,68,29.83,10.0,West,9.2,-,N/A,,Partly Cloudy,280,2013-02-20 05:56:00
10:56 PM,43.0,33.1,68,29.84,10.0,WNW,6.9,-,N/A,,Partly Cloudy,300,2013-02-20 06:56:00
11:56 PM,41.0,32.0,70,29.86,10.0,West,6.9,-,N/A,,Scattered Clouds,280,2013-02-20 07:56:00